Terminal Aerodrome Forecast
Issued by NWS

Home | Current Version | Previous Version | Text Only | Print | Product List | Glossary On
Versions: 1 2 3 4 5 6 7 8 9 10 11 12 13 14 15 16 17 18 19 20
000
FTUS43 KEAX 180500
TAFSTJ
TAF
KSTJ 180520Z 1806/1906 00000KT P6SM OVC110
     FM181300 13008KT P6SM VCSH BKN040
      TEMPO 1814/1818 4SM -TSRA BKN030CB
     FM182000 18010KT P6SM VCSH BKN030
      TEMPO 1821/1901 4SM -TSRA BKN030CB=

USA.gov is the U.S. government's official web portal to all federal, state and local government web resources and services.